createdAt,value
2023-05-13T00:03:51.392Z,7.40
2023-05-13T00:07:51.586Z,7.40
2023-05-13T00:11:51.784Z,7.30
2023-05-13T00:15:52.273Z,7.20
2023-05-13T00:19:55.062Z,7.10
2023-05-13T00:23:55.369Z,7.00
2023-05-13T00:27:55.502Z,6.90
2023-05-13T00:31:55.740Z,6.80
2023-05-13T00:35:58.580Z,6.70
2023-05-13T00:39:58.845Z,6.70
2023-05-13T00:44:00.106Z,6.70
2023-05-13T00:48:01.491Z,6.70
2023-05-13T00:52:05.365Z,6.70
2023-05-13T00:56:05.565Z,6.70
2023-05-13T01:00:08.311Z,6.70
2023-05-13T01:04:23.719Z,6.80
2023-05-13T01:08:40.635Z,6.70
2023-05-13T01:12:48.421Z,6.70
2023-05-13T01:16:55.074Z,6.70
2023-05-13T01:20:56.853Z,6.60
2023-05-13T01:25:00.006Z,6.70
2023-05-13T01:29:00.756Z,6.90
2023-05-13T01:33:02.457Z,7.00
2023-05-13T01:37:05.399Z,7.10
2023-05-13T01:41:08.947Z,7.10
2023-05-13T01:45:12.804Z,7.20
2023-05-13T01:49:13.586Z,7.20
2023-05-13T01:53:14.072Z,7.30
2023-05-13T01:57:17.218Z,7.30
2023-05-13T02:01:17.889Z,7.40
2023-05-13T02:05:19.298Z,7.40
2023-05-13T02:09:19.926Z,7.40
2023-05-13T02:13:22.715Z,7.50
2023-05-13T02:17:23.070Z,7.50
2023-05-13T02:21:23.399Z,7.50
2023-05-13T02:25:23.975Z,7.60
2023-05-13T02:29:26.882Z,7.60
2023-05-13T02:33:27.328Z,7.70
2023-05-13T02:37:28.048Z,7.70
2023-05-13T02:41:34.689Z,7.80
2023-05-13T02:45:37.514Z,8.00
2023-05-13T02:49:38.448Z,8.10
2023-05-13T02:53:39.878Z,8.20
2023-05-13T02:57:42.576Z,8.30
2023-05-13T03:01:45.517Z,8.30
2023-05-13T03:05:45.818Z,8.30
2023-05-13T03:09:46.120Z,8.30
2023-05-13T03:13:46.438Z,8.40
2023-05-13T03:17:50.557Z,8.40
2023-05-13T03:21:53.806Z,8.50
2023-05-13T03:25:54.252Z,8.50
2023-05-13T03:29:54.598Z,8.60
2023-05-13T03:33:58.565Z,8.70
2023-05-13T03:37:58.898Z,8.80
2023-05-13T03:41:59.609Z,8.80
2023-05-13T03:46:00.054Z,8.90
2023-05-13T03:50:04.667Z,8.90
2023-05-13T03:54:11.755Z,9.00
2023-05-13T03:58:19.299Z,9.10
2023-05-13T04:02:21.989Z,9.10
2023-05-13T04:06:24.914Z,9.20
2023-05-13T04:10:25.142Z,9.20
2023-05-13T04:14:25.372Z,9.30
2023-05-13T04:18:25.590Z,9.40
2023-05-13T04:22:28.459Z,9.50
2023-05-13T04:26:28.862Z,9.70
2023-05-13T04:30:29.264Z,9.70
2023-05-13T04:34:30.593Z,9.80
2023-05-13T04:38:34.614Z,9.90
2023-05-13T04:42:35.933Z,10.00
2023-05-13T04:46:38.436Z,10.00
2023-05-13T04:50:38.889Z,10.00
2023-05-13T04:54:42.850Z,10.00
2023-05-13T04:58:44.131Z,10.00
2023-05-13T05:02:47.641Z,10.00
2023-05-13T05:06:49.601Z,10.20
2023-05-13T05:10:53.826Z,10.20
2023-05-13T05:14:54.384Z,10.30
2023-05-13T05:18:54.776Z,10.30
2023-05-13T05:22:56.181Z,10.40
2023-05-13T05:27:02.387Z,10.50
2023-05-13T05:31:03.314Z,10.50
2023-05-13T05:35:05.446Z,10.70
2023-05-13T05:39:07.025Z,10.80
2023-05-13T05:43:13.873Z,10.80
2023-05-13T05:47:14.812Z,11.00
2023-05-13T05:51:15.084Z,11.10
2023-05-13T05:55:15.401Z,11.20
2023-05-13T05:59:18.352Z,11.20
2023-05-13T06:03:19.013Z,11.40
2023-05-13T06:07:19.508Z,11.50
2023-05-13T06:11:20.117Z,11.50
2023-05-13T06:15:23.024Z,11.50
2023-05-13T06:19:23.998Z,11.40
2023-05-13T06:23:25.090Z,11.40
2023-05-13T06:27:25.630Z,11.50
2023-05-13T06:31:29.237Z,11.70
2023-05-13T06:35:30.726Z,11.80
2023-05-13T06:39:31.755Z,11.90
2023-05-13T06:43:32.162Z,11.90
2023-05-13T06:47:42.579Z,12.10
2023-05-13T06:51:44.381Z,12.20
2023-05-13T06:55:45.069Z,12.30
2023-05-13T06:59:47.923Z,12.50
2023-05-13T07:03:51.755Z,12.60
2023-05-13T07:07:53.875Z,12.50
2023-05-13T07:11:54.414Z,12.60
2023-05-13T07:15:54.982Z,12.60
2023-05-13T07:19:58.012Z,12.50
2023-05-13T07:23:58.243Z,12.70
2023-05-13T07:27:58.484Z,12.80
2023-05-13T07:31:58.672Z,13.00
2023-05-13T07:36:01.533Z,13.10
2023-05-13T07:40:01.936Z,13.20
2023-05-13T07:44:02.337Z,13.10
2023-05-13T07:48:03.146Z,12.90
2023-05-13T07:52:06.218Z,12.60
2023-05-13T07:56:08.029Z,12.60
2023-05-13T08:00:10.745Z,12.50
2023-05-13T08:04:15.703Z,12.40
2023-05-13T08:08:18.679Z,12.40
2023-05-13T08:12:18.929Z,12.70
2023-05-13T08:16:19.184Z,13.00
2023-05-13T08:20:19.625Z,13.00
2023-05-13T08:24:22.421Z,13.50
2023-05-13T08:28:22.769Z,13.60
2023-05-13T08:32:23.153Z,13.40
2023-05-13T08:36:26.188Z,13.30
2023-05-13T08:40:29.499Z,13.30
2023-05-13T08:44:35.651Z,13.20
2023-05-13T08:48:39.945Z,13.10
2023-05-13T08:52:41.498Z,12.90
2023-05-13T08:56:53.956Z,12.90
2023-05-13T09:01:01.936Z,12.80
2023-05-13T09:05:12.056Z,12.70
2023-05-13T09:09:13.509Z,12.70
2023-05-13T09:13:21.295Z,12.60
2023-05-13T09:17:22.333Z,12.60
2023-05-13T09:21:28.301Z,12.70
2023-05-13T09:25:30.841Z,12.60
2023-05-13T09:29:33.736Z,12.70
2023-05-13T09:33:34.384Z,12.70
2023-05-13T09:37:34.734Z,12.70
2023-05-13T09:41:35.378Z,12.80
2023-05-13T09:45:39.374Z,13.00
2023-05-13T09:49:40.182Z,13.10
2023-05-13T09:53:40.492Z,13.30
2023-05-13T09:57:42.656Z,13.50
2023-05-13T10:01:48.264Z,13.50
2023-05-13T10:05:48.978Z,13.50
2023-05-13T10:09:50.431Z,13.30
2023-05-13T10:13:59.113Z,13.60
2023-05-13T10:18:05.274Z,13.80
2023-05-13T10:22:08.397Z,13.70
2023-05-13T10:26:10.049Z,13.50
2023-05-13T10:30:12.417Z,13.40
2023-05-13T10:34:16.406Z,13.50
2023-05-13T10:38:27.289Z,13.50
2023-05-13T10:42:46.302Z,13.50
2023-05-13T10:46:47.075Z,13.70
2023-05-13T10:50:59.725Z,13.70
2023-05-13T10:55:05.407Z,13.80
2023-05-13T10:59:08.285Z,13.90
2023-05-13T11:03:18.405Z,14.20
2023-05-13T11:07:21.484Z,14.20
2023-05-13T11:11:37.802Z,14.20
2023-05-13T11:15:47.911Z,14.30
2023-05-13T11:19:50.192Z,14.40
2023-05-13T11:24:00.249Z,14.60
2023-05-13T11:28:01.542Z,14.50
2023-05-13T11:32:03.327Z,14.70
2023-05-13T11:36:04.983Z,15.00
2023-05-13T11:40:11.209Z,15.60
2023-05-13T11:44:12.338Z,16.00
2023-05-13T11:48:26.207Z,16.30
2023-05-13T11:52:26.540Z,16.80
2023-05-13T11:56:33.130Z,16.70
2023-05-13T12:00:35.747Z,17.10
2023-05-13T12:04:36.305Z,17.90
2023-05-13T12:08:36.805Z,18.20
2023-05-13T12:12:43.374Z,17.70
2023-05-13T12:16:44.105Z,17.70
2023-05-13T12:20:45.003Z,17.20
2023-05-13T12:24:45.277Z,17.00
2023-05-13T12:28:48.167Z,16.80
2023-05-13T12:32:48.538Z,16.80
2023-05-13T12:36:48.777Z,16.70
2023-05-13T12:40:50.261Z,16.70
2023-05-13T12:44:53.371Z,16.90
2023-05-13T12:48:59.039Z,16.90
2023-05-13T12:53:00.816Z,16.70
2023-05-13T12:57:01.322Z,16.30
2023-05-13T13:01:04.450Z,16.30
2023-05-13T13:05:05.538Z,16.10
2023-05-13T13:09:06.225Z,16.60
2023-05-13T13:13:06.629Z,17.50
2023-05-13T13:17:09.997Z,18.40
2023-05-13T13:21:10.487Z,19.70
2023-05-13T13:25:11.552Z,20.90
2023-05-13T13:29:11.971Z,21.40
2023-05-13T13:33:15.967Z,22.30
2023-05-13T13:37:16.312Z,21.90
2023-05-13T13:41:16.656Z,21.20
2023-05-13T13:45:17.215Z,21.60
2023-05-13T13:49:23.991Z,22.20
2023-05-13T13:53:24.895Z,22.10
2023-05-13T13:57:25.288Z,21.70
2023-05-13T14:01:25.961Z,20.90
2023-05-13T14:05:29.505Z,20.70
2023-05-13T14:09:29.848Z,21.10
2023-05-13T14:13:30.065Z,21.80
2023-05-13T14:17:30.545Z,20.80
2023-05-13T14:21:35.139Z,19.70
2023-05-13T14:25:35.536Z,18.70
2023-05-13T14:29:36.138Z,19.70
2023-05-13T14:33:36.452Z,19.50
2023-05-13T14:37:39.508Z,19.40
2023-05-13T14:41:41.125Z,18.80
2023-05-13T14:45:41.399Z,18.00
2023-05-13T14:49:42.824Z,17.40
2023-05-13T14:53:45.971Z,16.70
2023-05-13T14:57:46.625Z,16.70
2023-05-13T15:01:46.981Z,16.80
2023-05-13T15:05:50.446Z,17.30
2023-05-13T15:09:53.338Z,17.60
2023-05-13T15:13:53.709Z,17.20
2023-05-13T15:17:54.938Z,16.70
2023-05-13T15:21:55.600Z,16.60
2023-05-13T15:25:58.524Z,16.60
2023-05-13T15:29:59.003Z,16.30
2023-05-13T15:33:59.667Z,16.40
2023-05-13T15:38:00.282Z,16.90
2023-05-13T15:42:03.144Z,16.90
2023-05-13T15:46:03.732Z,16.90
2023-05-13T15:50:04.167Z,16.80
2023-05-13T15:54:04.500Z,17.10
2023-05-13T15:58:10.104Z,17.50
2023-05-13T16:02:10.473Z,17.20
2023-05-13T16:06:10.826Z,17.10
2023-05-13T16:10:11.869Z,17.00
2023-05-13T16:14:14.850Z,16.70
2023-05-13T16:18:15.255Z,16.60
2023-05-13T16:22:31.030Z,16.10
2023-05-13T16:26:31.419Z,15.80
2023-05-13T16:30:34.756Z,15.70
2023-05-13T16:34:35.075Z,15.70
2023-05-13T16:38:35.853Z,15.70
2023-05-13T16:42:36.122Z,15.80
2023-05-13T16:46:44.074Z,15.40
2023-05-13T16:50:44.644Z,15.10
2023-05-13T16:54:45.216Z,15.00
2023-05-13T16:58:45.597Z,14.90
2023-05-13T17:02:48.884Z,14.80
2023-05-13T17:06:49.562Z,14.90
2023-05-13T17:10:49.951Z,14.70
2023-05-13T17:14:50.904Z,14.60
2023-05-13T17:18:54.128Z,14.40
2023-05-13T17:22:54.929Z,14.20
2023-05-13T17:26:56.017Z,14.20
2023-05-13T17:30:56.674Z,14.10
2023-05-13T17:35:00.176Z,14.00
2023-05-13T17:39:00.747Z,13.90
2023-05-13T17:43:03.614Z,13.80
2023-05-13T17:47:04.655Z,13.70
2023-05-13T17:51:07.998Z,13.60
2023-05-13T17:55:10.094Z,13.40
2023-05-13T17:59:10.556Z,13.30
2023-05-13T18:03:10.875Z,13.30
2023-05-13T18:07:13.778Z,13.30
2023-05-13T18:11:13.995Z,13.30
2023-05-13T18:15:14.571Z,13.30
2023-05-13T18:19:14.964Z,13.20
2023-05-13T18:23:18.106Z,13.10
2023-05-13T18:27:18.450Z,13.10
2023-05-13T18:31:19.125Z,13.00
2023-05-13T18:35:21.748Z,13.00
2023-05-13T18:39:24.735Z,12.90
2023-05-13T18:43:25.021Z,12.80
2023-05-13T18:47:25.519Z,12.80
2023-05-13T18:51:25.897Z,12.70
2023-05-13T18:55:28.696Z,12.60
2023-05-13T18:59:29.908Z,12.50
2023-05-13T19:03:30.900Z,12.50
2023-05-13T19:07:31.200Z,12.30
2023-05-13T19:11:34.307Z,12.10
2023-05-13T19:15:34.675Z,11.90
2023-05-13T19:19:34.881Z,11.70
2023-05-13T19:23:35.111Z,11.70
2023-05-13T19:27:39.312Z,11.50
2023-05-13T19:31:40.178Z,11.40
2023-05-13T19:35:40.583Z,11.20
2023-05-13T19:39:40.788Z,10.90
2023-05-13T19:43:43.524Z,10.80
2023-05-13T19:47:43.789Z,10.70
2023-05-13T19:51:44.216Z,10.70
2023-05-13T19:55:44.428Z,10.80
2023-05-13T19:59:47.281Z,10.80
2023-05-13T20:03:47.634Z,10.80
2023-05-13T20:07:47.972Z,10.70
2023-05-13T20:11:48.183Z,10.70
2023-05-13T20:15:50.941Z,10.50
2023-05-13T20:19:54.011Z,10.40
2023-05-13T20:23:54.196Z,10.20
2023-05-13T20:27:54.899Z,10.00
2023-05-13T20:31:57.692Z,9.90
2023-05-13T20:35:58.636Z,9.70
2023-05-13T20:39:58.838Z,9.60
2023-05-13T20:43:59.023Z,9.60
2023-05-13T20:48:01.920Z,9.40
2023-05-13T20:52:09.154Z,9.30
2023-05-13T20:56:10.602Z,9.20
2023-05-13T21:00:13.800Z,9.20
2023-05-13T21:04:17.481Z,9.30
2023-05-13T21:08:19.176Z,9.40
2023-05-13T21:12:19.399Z,9.50
2023-05-13T21:16:19.694Z,9.60
2023-05-13T21:20:23.293Z,9.90
2023-05-13T21:24:23.695Z,10.00
2023-05-13T21:28:26.242Z,10.00
2023-05-13T21:32:26.660Z,10.00
2023-05-13T21:36:29.562Z,9.90
2023-05-13T21:40:29.781Z,9.80
2023-05-13T21:44:30.648Z,9.70
2023-05-13T21:48:30.933Z,9.60
2023-05-13T21:52:33.763Z,9.70
2023-05-13T21:56:34.034Z,9.60
2023-05-13T22:00:34.813Z,9.60
2023-05-13T22:04:35.161Z,9.50
2023-05-13T22:08:38.093Z,9.50
2023-05-13T22:12:38.912Z,9.50
2023-05-13T22:16:39.200Z,9.50
2023-05-13T22:20:39.560Z,9.60
2023-05-13T22:24:42.430Z,9.60
2023-05-13T22:28:42.822Z,9.70
2023-05-13T22:32:43.171Z,9.80
2023-05-13T22:36:44.029Z,9.80
2023-05-13T22:40:46.878Z,9.70
2023-05-13T22:44:47.141Z,9.70
2023-05-13T22:48:47.366Z,9.50
2023-05-13T22:52:47.709Z,9.40
2023-05-13T22:56:51.177Z,9.30
2023-05-13T23:00:52.077Z,9.20
2023-05-13T23:04:52.326Z,9.20
2023-05-13T23:08:52.494Z,9.20
2023-05-13T23:12:56.637Z,9.20
2023-05-13T23:16:56.905Z,9.30
2023-05-13T23:20:58.521Z,9.30
2023-05-13T23:24:58.688Z,9.30
2023-05-13T23:29:01.678Z,9.40
2023-05-13T23:33:02.174Z,9.40
2023-05-13T23:37:02.508Z,9.40
2023-05-13T23:41:02.798Z,9.40
2023-05-13T23:45:05.819Z,9.40
2023-05-13T23:49:06.171Z,9.40
2023-05-13T23:53:06.482Z,9.40
2023-05-13T23:57:06.953Z,9.40
